Time;durP1;ratioP1;P1;durP2;ratioP2;P2;SDS_P1;SDS_P2;PMS_P1;PMS_P2;Temp;Humidity;BMP_temperature;BMP_pressure;BME280_temperature;BME280_humidity;BME280_pressure;Samples;Min_cycle;Max_cycle;Signal;HPM_P1;HPM_P2
2021/09/03 00:02:15;;;;;;;43.08;23.83;;;;;;;;;;5099243;28;20066;-79
2021/09/03 00:04:43;;;;;;;45.97;24.35;;;;;;;;;;5098404;28;20094;-79
2021/09/03 00:07:10;;;;;;;48.03;23.48;;;;;;;;;;5096875;28;20052;-79
2021/09/03 00:09:38;;;;;;;37.30;22.38;;;;;;;;;;5097647;28;20363;-79
2021/09/03 00:12:06;;;;;;;36.95;22.33;;;;;;;;;;5098086;28;20051;-79
2021/09/03 00:14:35;;;;;;;40.05;22.25;;;;;;;;;;5079884;28;20043;-79
2021/09/03 00:17:03;;;;;;;45.80;23.70;;;;;;;;;;5097523;28;20060;-80
2021/09/03 00:19:30;;;;;;;41.63;24.25;;;;;;;;;;5097132;28;20044;-79
2021/09/03 00:21:58;;;;;;;40.53;21.88;;;;;;;;;;5097995;28;20109;-79
2021/09/03 00:24:27;;;;;;;49.55;23.50;;;;;;;;;;5107905;28;20052;-78
2021/09/03 00:26:54;;;;;;;42.35;23.27;;;;;;;;;;5109503;28;20104;-79
2021/09/03 00:29:25;;;;;;;45.67;24.00;;;;;;;;;;5097128;28;20390;-79
2021/09/03 00:31:52;;;;;;;45.58;24.92;;;;;;;;;;5099277;28;20040;-78
2021/09/03 00:34:30;;;;;;;39.90;21.95;;;;;;;;;;5098380;28;20109;-79
2021/09/03 00:36:57;;;;;;;41.92;22.42;;;;;;;;;;5096746;28;20242;-79
2021/09/03 00:39:25;;;;;;;40.38;21.95;;;;;;;;;;5098711;28;20052;-79
2021/09/03 00:41:55;;;;;;;41.70;22.40;;;;;;;;;;5096473;28;20040;-78
2021/09/03 00:44:22;;;;;;;37.17;19.70;;;;;;;;;;5097747;28;20194;-79
2021/09/03 00:46:53;;;;;;;37.28;19.02;;;;;;;;;;5097608;28;20055;-79
2021/09/03 00:49:19;;;;;;;36.75;18.48;;;;;;;;;;5096459;28;20056;-79
2021/09/03 00:51:47;;;;;;;33.67;18.25;;;;;;;;;;5096671;28;20480;-79
2021/09/03 00:54:14;;;;;;;33.90;16.90;;;;;;;;;;5100118;28;20323;-79
2021/09/03 00:56:41;;;;;;;30.17;16.85;;;;;;;;;;5099486;28;20087;-80
2021/09/03 00:59:07;;;;;;;35.45;17.10;;;;;;;;;;5096784;28;20054;-79
2021/09/03 01:01:34;;;;;;;32.25;16.25;;;;;;;;;;5098171;28;20142;-80
2021/09/03 01:04:01;;;;;;;30.75;16.30;;;;;;;;;;5096179;28;20408;-79
2021/09/03 01:06:29;;;;;;;26.77;16.15;;;;;;;;;;5097524;28;20464;-79
2021/09/03 01:08:56;;;;;;;31.98;15.88;;;;;;;;;;5098899;28;20055;-79
2021/09/03 01:11:22;;;;;;;29.95;15.00;;;;;;;;;;5099432;28;20048;-78
2021/09/03 01:13:52;;;;;;;26.25;15.50;;;;;;;;;;5096135;28;20069;-78
2021/09/03 01:16:19;;;;;;;32.95;17.02;;;;;;;;;;5097799;28;20056;-79
2021/09/03 01:18:46;;;;;;;26.35;14.63;;;;;;;;;;5096453;28;20113;-78
2021/09/03 01:21:15;;;;;;;22.50;14.13;;;;;;;;;;5097048;28;20059;-78
2021/09/03 01:23:46;;;;;;;25.13;14.45;;;;;;;;;;5096743;28;20142;-78
2021/09/03 01:26:13;;;;;;;28.60;16.15;;;;;;;;;;5096729;28;20048;-79
2021/09/03 01:28:45;;;;;;;30.65;15.77;;;;;;;;;;5094537;28;20098;-78
2021/09/03 01:31:11;;;;;;;28.02;14.50;;;;;;;;;;5096926;28;20051;-79
2021/09/03 01:33:39;;;;;;;24.88;15.55;;;;;;;;;;5096302;28;20109;-78
2021/09/03 01:36:05;;;;;;;28.83;14.40;;;;;;;;;;5097016;28;20048;-78
2021/09/03 01:38:32;;;;;;;22.83;14.25;;;;;;;;;;5097080;28;20048;-79
2021/09/03 01:40:58;;;;;;;23.42;14.00;;;;;;;;;;5093701;28;20446;-79
2021/09/03 01:43:25;;;;;;;22.02;12.82;;;;;;;;;;5096138;28;20163;-79
2021/09/03 01:45:52;;;;;;;25.77;13.70;;;;;;;;;;5097308;28;20048;-79
2021/09/03 01:48:22;;;;;;;25.38;14.02;;;;;;;;;;5097427;28;20219;-79
2021/09/03 01:50:49;;;;;;;24.90;14.77;;;;;;;;;;5102007;28;20059;-78
2021/09/03 01:53:15;;;;;;;23.45;13.88;;;;;;;;;;5100117;28;20040;-79
2021/09/03 01:55:42;;;;;;;26.15;15.93;;;;;;;;;;5100739;28;20078;-79
2021/09/03 01:58:09;;;;;;;26.40;15.13;;;;;;;;;;5099919;28;20401;-78
2021/09/03 02:00:35;;;;;;;29.02;15.57;;;;;;;;;;5099344;28;20052;-79
2021/09/03 02:03:02;;;;;;;29.50;16.55;;;;;;;;;;5116811;28;20055;-79
2021/09/03 02:05:30;;;;;;;31.48;17.25;;;;;;;;;;5098424;28;20112;-79
2021/09/03 02:07:56;;;;;;;28.77;16.50;;;;;;;;;;5101809;28;20065;-79
2021/09/03 02:10:24;;;;;;;25.83;16.27;;;;;;;;;;5103899;28;20051;-79
2021/09/03 02:12:51;;;;;;;29.23;17.25;;;;;;;;;;5103191;28;20408;-79
2021/09/03 02:15:17;;;;;;;31.83;19.02;;;;;;;;;;5121554;28;20047;-79
2021/09/03 02:17:44;;;;;;;37.75;19.90;;;;;;;;;;5103364;28;20062;-79
2021/09/03 02:20:11;;;;;;;41.40;21.48;;;;;;;;;;5120572;28;20077;-79
2021/09/03 02:22:42;;;;;;;36.63;19.45;;;;;;;;;;5105916;28;20146;-78
2021/09/03 02:25:09;;;;;;;34.72;18.27;;;;;;;;;;5125516;28;20055;-78
2021/09/03 02:27:36;;;;;;;27.00;17.00;;;;;;;;;;5126078;28;20048;-79
2021/09/03 02:30:04;;;;;;;32.95;18.50;;;;;;;;;;5104305;28;20048;-80
2021/09/03 02:32:30;;;;;;;34.38;19.42;;;;;;;;;;5102559;28;20407;-79
2021/09/03 02:34:57;;;;;;;35.95;19.67;;;;;;;;;;5121115;28;20289;-79
2021/09/03 02:37:26;;;;;;;30.50;18.17;;;;;;;;;;5121533;28;20428;-79
2021/09/03 02:39:52;;;;;;;38.35;21.27;;;;;;;;;;5101775;28;20407;-79
2021/09/03 02:42:19;;;;;;;43.10;20.05;;;;;;;;;;5119484;28;20055;-79
2021/09/03 02:44:46;;;;;;;30.27;17.77;;;;;;;;;;5102651;28;20062;-80
2021/09/03 02:47:13;;;;;;;36.95;19.20;;;;;;;;;;5121620;28;20062;-80
2021/09/03 02:49:40;;;;;;;33.25;19.55;;;;;;;;;;5120099;28;20109;-80
2021/09/03 02:52:08;;;;;;;35.22;18.55;;;;;;;;;;5138794;27;20099;-81
2021/09/03 02:54:36;;;;;;;34.45;18.60;;;;;;;;;;5138282;27;20035;-79
2021/09/03 02:57:03;;;;;;;36.10;19.13;;;;;;;;;;5105532;28;20265;-80
2021/09/03 02:59:34;;;;;;;41.65;21.02;;;;;;;;;;5104848;28;20051;-79
2021/09/03 03:02:01;;;;;;;36.38;18.77;;;;;;;;;;5110625;27;20229;-81
2021/09/03 03:04:29;;;;;;;29.27;17.88;;;;;;;;;;5119755;27;20066;-79
2021/09/03 03:07:02;;;;;;;32.58;17.67;;;;;;;;;;5126887;28;20062;-79
2021/09/03 03:09:28;;;;;;;32.42;17.35;;;;;;;;;;5101083;28;20087;-80
2021/09/03 03:11:59;;;;;;;36.05;19.75;;;;;;;;;;5102770;28;20493;-80
2021/09/03 03:14:32;;;;;;;36.85;19.27;;;;;;;;;;5102406;28;20346;-79
2021/09/03 03:17:01;;;;;;;;;;;;;;;;;;5121330;28;20118;-80
2021/09/03 03:19:29;;;;;;;39.00;18.55;;;;;;;;;;5100502;28;20018;-80
2021/09/03 03:21:56;;;;;;;40.00;19.38;;;;;;;;;;5101175;28;20047;-80
2021/09/03 03:24:26;;;;;;;35.97;20.58;;;;;;;;;;5102779;28;20051;-79
2021/09/03 03:26:52;;;;;;;40.45;20.65;;;;;;;;;;5121515;28;20052;-80
2021/09/03 03:29:24;;;;;;;33.38;19.55;;;;;;;;;;5121273;28;20410;-81
2021/09/03 03:31:53;;;;;;;34.33;19.00;;;;;;;;;;5137120;27;20040;-79
2021/09/03 03:34:26;;;;;;;38.17;20.42;;;;;;;;;;5105455;28;20048;-80
2021/09/03 03:36:53;;;;;;;38.03;20.55;;;;;;;;;;5107079;28;20048;-80
2021/09/03 03:39:20;;;;;;;37.95;20.50;;;;;;;;;;5094892;28;20067;-79
2021/09/03 03:41:47;;;;;;;34.85;18.50;;;;;;;;;;5087662;28;20052;-80
2021/09/03 03:44:14;;;;;;;40.55;21.13;;;;;;;;;;5080460;28;20386;-79
2021/09/03 03:46:41;;;;;;;41.97;20.38;;;;;;;;;;5100666;28;20086;-79
2021/09/03 03:49:08;;;;;;;41.20;20.30;;;;;;;;;;5099367;28;20346;-80
2021/09/03 03:51:35;;;;;;;34.80;20.13;;;;;;;;;;5099240;28;20055;-79
2021/09/03 03:54:02;;;;;;;33.13;18.45;;;;;;;;;;5082149;28;20519;-81
2021/09/03 03:56:29;;;;;;;32.42;18.83;;;;;;;;;;5099196;28;20048;-80
2021/09/03 03:58:56;;;;;;;36.15;17.55;;;;;;;;;;5113377;28;20046;-79
2021/09/03 04:01:23;;;;;;;28.42;17.50;;;;;;;;;;5091492;28;20071;-79
2021/09/03 04:03:50;;;;;;;25.88;16.65;;;;;;;;;;5109942;28;20124;-79
2021/09/03 04:06:21;;;;;;;27.33;17.48;;;;;;;;;;5098842;28;20051;-79
2021/09/03 04:08:47;;;;;;;91.03;21.05;;;;;;;;;;5105325;28;20094;-79
2021/09/03 04:11:14;;;;;;;121.90;24.15;;;;;;;;;;5101196;28;20123;-80
2021/09/03 04:13:41;;;;;;;172.80;27.95;;;;;;;;;;5119481;28;20051;-80
2021/09/03 04:16:08;;;;;;;38.45;21.23;;;;;;;;;;5120288;28;20054;-80
2021/09/03 04:18:34;;;;;;;32.60;20.48;;;;;;;;;;5116700;28;20059;-81
2021/09/03 04:21:01;;;;;;;36.38;21.00;;;;;;;;;;5118306;28;20067;-80
2021/09/03 04:23:28;;;;;;;33.38;20.23;;;;;;;;;;5099423;28;20067;-81
2021/09/03 04:25:58;;;;;;;33.47;19.73;;;;;;;;;;5100931;28;20154;-80
2021/09/03 04:28:27;;;;;;;35.28;19.52;;;;;;;;;;5101105;28;20055;-80
2021/09/03 04:30:58;;;;;;;36.15;19.73;;;;;;;;;;5117660;28;20423;-81
2021/09/03 04:33:29;;;;;;;34.22;19.80;;;;;;;;;;5105762;28;20080;-81
2021/09/03 04:35:55;;;;;;;33.17;20.08;;;;;;;;;;5097121;28;20048;-81
2021/09/03 04:38:30;;;;;;;34.00;19.40;;;;;;;;;;5079723;28;20044;-80
2021/09/03 04:40:58;;;;;;;36.58;21.83;;;;;;;;;;5100840;28;20083;-81
2021/09/03 04:43:24;;;;;;;43.33;22.25;;;;;;;;;;5096168;28;20121;-80
2021/09/03 04:45:54;;;;;;;45.08;25.15;;;;;;;;;;5117121;28;20120;-81
2021/09/03 04:48:21;;;;;;;44.38;23.80;;;;;;;;;;5103404;28;20066;-81
2021/09/03 04:50:47;;;;;;;52.67;26.85;;;;;;;;;;5081031;28;20112;-80
2021/09/03 04:53:15;;;;;;;60.22;27.48;;;;;;;;;;5076624;28;20050;-81
2021/09/03 04:55:41;;;;;;;55.17;28.30;;;;;;;;;;5095359;28;20199;-81
2021/09/03 04:58:08;;;;;;;61.20;28.33;;;;;;;;;;5077101;28;20475;-82
2021/09/03 05:00:35;;;;;;;55.63;28.48;;;;;;;;;;5093820;28;20439;-81
2021/09/03 05:03:02;;;;;;;55.90;29.05;;;;;;;;;;5089146;28;20495;-82
2021/09/03 05:05:28;;;;;;;53.40;26.88;;;;;;;;;;5115879;28;20158;-81
2021/09/03 05:07:58;;;;;;;62.15;32.05;;;;;;;;;;5116818;28;20048;-82
2021/09/03 05:10:35;;;;;;;55.95;29.30;;;;;;;;;;5097072;28;20335;-81
2021/09/03 05:13:02;;;;;;;56.28;29.73;;;;;;;;;;5113842;28;20532;-80
2021/09/03 05:15:41;;;;;;;64.00;29.45;;;;;;;;;;5096253;28;20389;-82
2021/09/03 05:18:09;;;;;;;62.75;30.23;;;;;;;;;;5095581;28;20123;-81
2021/09/03 05:20:35;;;;;;;61.47;28.63;;;;;;;;;;5099778;28;20102;-81
2021/09/03 05:23:05;;;;;;;59.35;31.73;;;;;;;;;;5097717;28;20411;-81
2021/09/03 05:25:32;;;;;;;55.45;29.40;;;;;;;;;;5089924;28;20043;-80
2021/09/03 05:27:59;;;;;;;59.38;31.55;;;;;;;;;;5093785;28;20058;-80
2021/09/03 05:30:26;;;;;;;58.05;29.95;;;;;;;;;;5105129;28;20064;-79
2021/09/03 05:32:54;;;;;;;59.70;30.95;;;;;;;;;;5117847;27;20032;-79
2021/09/03 05:35:26;;;;;;;55.42;30.35;;;;;;;;;;5098560;28;20063;-80
2021/09/03 05:37:54;;;;;;;66.00;31.75;;;;;;;;;;5093352;28;20457;-80
2021/09/03 05:40:22;;;;;;;56.53;29.63;;;;;;;;;;5091650;28;20119;-80
2021/09/03 05:42:49;;;;;;;54.38;30.20;;;;;;;;;;5093378;28;20110;-79
2021/09/03 05:45:16;;;;;;;47.67;26.90;;;;;;;;;;5109375;28;20051;-79
2021/09/03 05:47:44;;;;;;;55.97;30.27;;;;;;;;;;5093615;28;20036;-79
2021/09/03 05:50:12;;;;;;;49.88;30.08;;;;;;;;;;5093739;28;20047;-80
2021/09/03 05:55:10;;;;;;;53.33;30.63;;;;;;;;;;5104600;28;20031;-78
2021/09/03 05:57:38;;;;;;;52.28;28.65;;;;;;;;;;5095558;28;20052;-79
2021/09/03 06:00:05;;;;;;;56.25;30.23;;;;;;;;;;5112625;28;20150;-79
2021/09/03 06:02:32;;;;;;;53.72;29.85;;;;;;;;;;5106339;28;20028;-80
2021/09/03 06:04:59;;;;;;;50.90;28.63;;;;;;;;;;5108248;28;20377;-80
2021/09/03 06:07:27;;;;;;;53.78;27.73;;;;;;;;;;5112055;28;20048;-79
2021/09/03 06:09:53;;;;;;;52.55;28.92;;;;;;;;;;5090438;28;20199;-79
2021/09/03 06:12:20;;;;;;;52.50;29.33;;;;;;;;;;5112272;28;20105;-80
2021/09/03 06:14:50;;;;;;;55.72;28.67;;;;;;;;;;5106582;28;20050;-80
2021/09/03 06:17:17;;;;;;;48.33;28.98;;;;;;;;;;5098485;28;20063;-80
2021/09/03 06:19:50;;;;;;;56.88;30.48;;;;;;;;;;5090154;28;20252;-80
2021/09/03 06:22:17;;;;;;;54.65;29.85;;;;;;;;;;5089100;28;20039;-79
2021/09/03 06:24:45;;;;;;;51.72;28.20;;;;;;;;;;5108114;28;20048;-81
2021/09/03 06:27:12;;;;;;;39.72;24.20;;;;;;;;;;5088632;28;20117;-80
2021/09/03 06:29:42;;;;;;;45.72;26.30;;;;;;;;;;5108100;28;20526;-80
2021/09/03 06:32:13;;;;;;;54.65;27.02;;;;;;;;;;5110253;28;20089;-80
2021/09/03 06:34:41;;;;;;;51.13;25.48;;;;;;;;;;5089599;28;20090;-79
2021/09/03 06:37:08;;;;;;;46.03;25.63;;;;;;;;;;5082878;28;20506;-80
2021/09/03 06:39:35;;;;;;;46.17;23.45;;;;;;;;;;5073391;28;20048;-80
2021/09/03 06:42:03;;;;;;;41.15;22.27;;;;;;;;;;5088395;28;20191;-80
2021/09/03 06:44:30;;;;;;;41.33;21.63;;;;;;;;;;5111864;28;20051;-81
2021/09/03 06:46:57;;;;;;;44.08;20.45;;;;;;;;;;5093582;28;20180;-81
2021/09/03 06:49:24;;;;;;;37.63;20.33;;;;;;;;;;5097150;28;20099;-82
2021/09/03 06:51:51;;;;;;;39.45;20.63;;;;;;;;;;5102484;28;20052;-82
2021/09/03 06:54:20;;;;;;;37.25;21.10;;;;;;;;;;5104164;28;20083;-81
2021/09/03 06:56:51;;;;;;;34.33;19.27;;;;;;;;;;5092148;28;20064;-81
2021/09/03 06:59:18;;;;;;;41.25;20.10;;;;;;;;;;5095801;28;20048;-81
2021/09/03 07:01:45;;;;;;;35.40;20.35;;;;;;;;;;5114140;28;20305;-81
2021/09/03 07:04:12;;;;;;;29.52;18.52;;;;;;;;;;5110727;28;20038;-80
2021/09/03 07:06:39;;;;;;;34.10;18.77;;;;;;;;;;5088832;28;20048;-80
2021/09/03 07:09:06;;;;;;;27.25;15.40;;;;;;;;;;5097037;28;20066;-80
2021/09/03 07:11:34;;;;;;;29.23;16.08;;;;;;;;;;5093833;28;20272;-80
2021/09/03 07:14:01;;;;;;;28.13;16.58;;;;;;;;;;5099586;28;20069;-80
2021/09/03 07:16:35;;;;;;;26.13;15.52;;;;;;;;;;5101903;28;20075;-80
2021/09/03 07:19:03;;;;;;;28.70;17.25;;;;;;;;;;5111866;28;20427;-82
2021/09/03 07:21:30;;;;;;;30.95;16.98;;;;;;;;;;5091792;28;20083;-82
2021/09/03 07:23:58;;;;;;;29.23;15.93;;;;;;;;;;5091957;28;20079;-82
2021/09/03 07:26:25;;;;;;;27.83;14.80;;;;;;;;;;5073245;28;20048;-80
2021/09/03 07:28:51;;;;;;;28.77;14.05;;;;;;;;;;5107599;28;20480;-80
2021/09/03 07:31:18;;;;;;;27.23;14.18;;;;;;;;;;5093067;28;20055;-81
2021/09/03 07:33:45;;;;;;;21.63;13.02;;;;;;;;;;5096943;28;20109;-80
2021/09/03 07:36:12;;;;;;;18.95;12.25;;;;;;;;;;5075951;28;20036;-81
2021/09/03 07:38:39;;;;;;;24.30;11.57;;;;;;;;;;5077052;28;20048;-81
2021/09/03 07:41:09;;;;;;;23.77;12.80;;;;;;;;;;5076549;28;20086;-81
2021/09/03 07:43:36;;;;;;;20.05;11.13;;;;;;;;;;5091588;28;20064;-80
2021/09/03 07:46:03;;;;;;;23.92;12.15;;;;;;;;;;5090729;28;20134;-80
2021/09/03 07:48:33;;;;;;;26.48;12.07;;;;;;;;;;5111202;28;20070;-81
2021/09/03 07:51:00;;;;;;;28.83;11.63;;;;;;;;;;5111501;28;20063;-80
2021/09/03 07:53:31;;;;;;;21.98;11.25;;;;;;;;;;5104275;28;20220;-81
2021/09/03 07:56:00;;;;;;;28.90;12.20;;;;;;;;;;5082906;28;20150;-81
2021/09/03 07:58:29;;;;;;;22.48;11.23;;;;;;;;;;5097940;28;20082;-81
2021/09/03 08:00:56;;;;;;;17.48;10.63;;;;;;;;;;5111844;28;20048;-81
2021/09/03 08:03:23;;;;;;;20.23;11.07;;;;;;;;;;5114148;28;20047;-80
2021/09/03 08:05:50;;;;;;;26.73;11.40;;;;;;;;;;5093569;28;20043;-81
2021/09/03 08:08:17;;;;;;;23.17;10.48;;;;;;;;;;5094533;28;20130;-80
2021/09/03 08:10:44;;;;;;;16.63;9.57;;;;;;;;;;5111956;28;20050;-81
2021/09/03 08:13:12;;;;;;;20.25;9.02;;;;;;;;;;5094004;28;20150;-80
2021/09/03 08:15:41;;;;;;;17.45;9.40;;;;;;;;;;5093557;28;20075;-81
2021/09/03 08:18:08;;;;;;;20.70;9.90;;;;;;;;;;5112749;28;20096;-80
2021/09/03 08:20:36;;;;;;;22.30;9.00;;;;;;;;;;5113851;28;20051;-79
2021/09/03 08:23:04;;;;;;;22.23;8.95;;;;;;;;;;5093230;28;20048;-81
2021/09/03 08:25:31;;;;;;;19.77;8.68;;;;;;;;;;5098401;28;20241;-81
2021/09/03 08:27:58;;;;;;;23.60;9.57;;;;;;;;;;5100971;28;20044;-80
2021/09/03 08:30:26;;;;;;;17.80;8.85;;;;;;;;;;5097680;28;20420;-81
2021/09/03 08:32:53;;;;;;;18.27;8.13;;;;;;;;;;5094322;28;20107;-81
2021/09/03 08:35:26;;;;;;;20.40;8.68;;;;;;;;;;5096355;28;20047;-81
2021/09/03 08:37:53;;;;;;;19.73;9.82;;;;;;;;;;5105174;28;20047;-80
2021/09/03 08:40:20;;;;;;;21.33;9.88;;;;;;;;;;5102966;28;20200;-81
2021/09/03 08:42:47;;;;;;;23.52;9.70;;;;;;;;;;5104482;28;20054;-81
2021/09/03 08:45:15;;;;;;;22.35;9.52;;;;;;;;;;5093247;28;20044;-80
2021/09/03 08:47:42;;;;;;;30.92;11.00;;;;;;;;;;5099697;27;20114;-80
2021/09/03 08:50:11;;;;;;;25.98;9.82;;;;;;;;;;5112146;27;20261;-80
2021/09/03 08:52:48;;;;;;;27.98;10.63;;;;;;;;;;5112086;27;20349;-81
2021/09/03 08:55:17;;;;;;;19.95;8.05;;;;;;;;;;5114765;27;20255;-80
2021/09/03 08:57:44;;;;;;;17.70;8.52;;;;;;;;;;5096018;28;20276;-82
2021/09/03 09:00:12;;;;;;;20.90;8.75;;;;;;;;;;5088675;28;20380;-80
2021/09/03 09:03:10;;;;;;;20.83;8.88;;;;;;;;;;5087180;28;20106;-81
2021/09/03 09:05:46;;;;;;;26.10;8.95;;;;;;;;;;5070536;28;20064;-81
2021/09/03 09:08:13;;;;;;;25.08;9.20;;;;;;;;;;5081560;28;20052;-81
2021/09/03 09:10:59;;;;;;;26.50;9.77;;;;;;;;;;5111213;28;20342;-80
2021/09/03 09:13:28;;;;;;;21.88;9.48;;;;;;;;;;5121652;27;20094;-81
2021/09/03 09:16:14;;;;;;;18.33;9.45;;;;;;;;;;5103990;28;20042;-81
2021/09/03 09:18:41;;;;;;;;;;;;;;;;;;5096820;28;20165;-85
2021/09/03 09:21:14;;;;;;;;;;;;;;;;;;5077178;28;19920;-81
2021/09/03 09:23:49;;;;;;;22.08;8.45;;;;;;;;;;5097474;28;19941;-81
2021/09/03 09:26:18;;;;;;;20.83;8.43;;;;;;;;;;5128577;27;20035;-82
2021/09/03 09:28:45;;;;;;;31.42;8.13;;;;;;;;;;5098672;28;20570;-82
2021/09/03 09:31:25;;;;;;;27.80;8.77;;;;;;;;;;5109619;28;20256;-81
2021/09/03 09:33:53;;;;;;;26.38;9.02;;;;;;;;;;5074136;28;20055;-82
2021/09/03 09:36:20;;;;;;;22.92;8.63;;;;;;;;;;5099061;28;20134;-80
2021/09/03 09:38:47;;;;;;;25.95;8.52;;;;;;;;;;5093005;28;20063;-81
2021/09/03 09:41:25;;;;;;;26.48;8.52;;;;;;;;;;5091199;28;20051;-83
2021/09/03 09:43:51;;;;;;;20.52;7.93;;;;;;;;;;5107544;28;20207;-81
2021/09/03 09:46:24;;;;;;;23.55;8.73;;;;;;;;;;5094193;28;20071;-81
2021/09/03 09:48:57;;;;;;;16.55;7.53;;;;;;;;;;5096897;28;20163;-82
2021/09/03 09:51:29;;;;;;;18.98;7.43;;;;;;;;;;5108263;28;20101;-81
2021/09/03 09:53:57;;;;;;;19.90;8.32;;;;;;;;;;5091266;28;20070;-82
2021/09/03 09:56:25;;;;;;;21.10;8.10;;;;;;;;;;5108725;28;20063;-81
2021/09/03 09:58:55;;;;;;;21.63;8.07;;;;;;;;;;5111520;27;20531;-81
2021/09/03 10:01:22;;;;;;;19.75;7.20;;;;;;;;;;5095000;28;20289;-82
2021/09/03 10:03:53;;;;;;;21.13;8.48;;;;;;;;;;5091122;28;20044;-81
2021/09/03 10:06:21;;;;;;;21.20;9.13;;;;;;;;;;5098062;27;20047;-81
2021/09/03 10:08:49;;;;;;;24.08;10.55;;;;;;;;;;5105698;28;20055;-80
2021/09/03 10:11:16;;;;;;;31.65;12.52;;;;;;;;;;5106298;28;20084;-82
2021/09/03 10:13:43;;;;;;;19.17;9.85;;;;;;;;;;5099120;28;20055;-82
2021/09/03 10:16:13;;;;;;;21.38;8.43;;;;;;;;;;5090418;28;20044;-81
2021/09/03 10:18:42;;;;;;;15.98;8.07;;;;;;;;;;5089108;28;20207;-81
2021/09/03 10:21:09;;;;;;;19.30;8.20;;;;;;;;;;5109462;28;20398;-81
2021/09/03 10:23:58;;;;;;;18.25;8.80;;;;;;;;;;5080984;28;20484;-82
2021/09/03 10:26:44;;;;;;;18.67;9.23;;;;;;;;;;5109479;28;20302;-81
2021/09/03 10:29:13;;;;;;;16.90;8.25;;;;;;;;;;5111558;28;20108;-81
2021/09/03 10:31:59;;;;;;;17.38;9.57;;;;;;;;;;5124143;27;20055;-81
2021/09/03 10:34:41;;;;;;;16.90;9.80;;;;;;;;;;5094393;28;20052;-80
2021/09/03 10:37:17;;;;;;;18.35;9.52;;;;;;;;;;5127665;27;20039;-81
2021/09/03 10:39:44;;;;;;;;;;;;;;;;;;5118147;27;20050;-82
2021/09/03 10:42:32;;;;;;;30.23;10.70;;;;;;;;;;5113329;28;19942;-82
2021/09/03 10:45:04;;;;;;;16.95;9.93;;;;;;;;;;5115838;28;20095;-81
2021/09/03 10:47:32;;;;;;;22.60;10.73;;;;;;;;;;5121314;27;20057;-82
2021/09/03 10:50:08;;;;;;;24.05;10.77;;;;;;;;;;5128781;27;20149;-82
2021/09/03 10:52:37;;;;;;;16.88;10.35;;;;;;;;;;5094792;28;20036;-82
2021/09/03 10:55:16;;;;;;;21.58;12.57;;;;;;;;;;5109872;28;20092;-81
2021/09/03 10:57:59;;;;;;;19.08;11.05;;;;;;;;;;5096405;28;20128;-83
2021/09/03 11:00:26;;;;;;;22.52;10.85;;;;;;;;;;5096104;28;20140;-83
2021/09/03 11:02:53;;;;;;;17.05;10.18;;;;;;;;;;5097832;28;20056;-83
2021/09/03 11:05:22;;;;;;;20.70;10.32;;;;;;;;;;5099853;28;20079;-83
2021/09/03 11:07:49;;;;;;;17.00;9.43;;;;;;;;;;5109541;27;20069;-83
2021/09/03 11:10:17;;;;;;;17.60;9.38;;;;;;;;;;5117741;27;20050;-83
2021/09/03 11:12:51;;;;;;;18.60;9.35;;;;;;;;;;5094403;28;20040;-83
2021/09/03 11:15:18;;;;;;;14.25;8.73;;;;;;;;;;5083011;28;20131;-83
2021/09/03 11:17:45;;;;;;;14.77;8.88;;;;;;;;;;5089501;28;20071;-83
2021/09/03 11:20:16;;;;;;;14.48;8.90;;;;;;;;;;5096625;28;20035;-82
2021/09/03 11:22:43;;;;;;;17.98;9.20;;;;;;;;;;5107297;28;20056;-82
2021/09/03 11:25:10;;;;;;;17.88;8.48;;;;;;;;;;5093765;28;20079;-83
2021/09/03 11:27:44;;;;;;;17.08;8.77;;;;;;;;;;5120896;27;20039;-83
2021/09/03 11:30:16;;;;;;;19.42;8.77;;;;;;;;;;5105286;28;20054;-83
2021/09/03 11:32:57;;;;;;;18.92;9.18;;;;;;;;;;5093181;28;20299;-83
2021/09/03 11:35:25;;;;;;;20.08;9.02;;;;;;;;;;5094925;28;20047;-82
2021/09/03 11:37:53;;;;;;;11.70;8.05;;;;;;;;;;5100600;27;20034;-82
2021/09/03 11:40:26;;;;;;;16.13;7.75;;;;;;;;;;5128238;27;20090;-82
2021/09/03 11:42:58;;;;;;;15.30;8.40;;;;;;;;;;5124644;27;20205;-83
2021/09/03 11:45:32;;;;;;;13.38;7.25;;;;;;;;;;5136950;27;20118;-83
2021/09/03 11:48:04;;;;;;;15.73;8.30;;;;;;;;;;5111813;28;20101;-83
2021/09/03 11:50:35;;;;;;;14.18;7.80;;;;;;;;;;5104174;28;20052;-82
2021/09/03 11:53:15;;;;;;;16.40;7.43;;;;;;;;;;5097182;28;20047;-82
2021/09/03 11:55:44;;;;;;;18.40;7.72;;;;;;;;;;5118278;28;20051;-84
2021/09/03 11:58:11;;;;;;;21.10;6.90;;;;;;;;;;5109126;27;20065;-83
2021/09/03 12:00:40;;;;;;;14.20;7.97;;;;;;;;;;5096730;27;20111;-84
2021/09/03 12:03:10;;;;;;;16.70;8.00;;;;;;;;;;5096595;27;20077;-83
2021/09/03 12:05:37;;;;;;;16.52;7.63;;;;;;;;;;5113923;27;20204;-83
2021/09/03 12:08:12;;;;;;;16.10;7.57;;;;;;;;;;5105939;28;20048;-82
2021/09/03 12:10:56;;;;;;;14.13;7.10;;;;;;;;;;5124577;27;20353;-81
2021/09/03 12:13:23;;;;;;;15.35;6.80;;;;;;;;;;5102230;28;20198;-82
2021/09/03 12:16:07;;;;;;;12.23;6.53;;;;;;;;;;5131733;27;20043;-83
2021/09/03 12:18:38;;;;;;;15.00;7.70;;;;;;;;;;5118883;28;20301;-82
2021/09/03 12:21:11;;;;;;;19.40;8.48;;;;;;;;;;5095960;28;20048;-83
2021/09/03 12:23:46;;;;;;;24.23;9.77;;;;;;;;;;5092479;28;20304;-82
2021/09/03 12:26:17;;;;;;;20.83;8.00;;;;;;;;;;5087857;28;20829;-83
2021/09/03 12:28:53;;;;;;;18.13;8.32;;;;;;;;;;5086322;28;20110;-83
2021/09/03 12:31:23;;;;;;;23.55;8.38;;;;;;;;;;5072104;28;20143;-82
2021/09/03 12:33:52;;;;;;;17.35;7.70;;;;;;;;;;5075617;28;20056;-82
2021/09/03 12:36:21;;;;;;;16.88;8.52;;;;;;;;;;5101986;28;20040;-83
2021/09/03 12:38:50;;;;;;;22.20;8.07;;;;;;;;;;5089752;28;20048;-82
2021/09/03 12:41:19;;;;;;;12.75;6.93;;;;;;;;;;5087007;28;20453;-83
2021/09/03 12:43:51;;;;;;;20.88;8.07;;;;;;;;;;5088184;28;20098;-84
2021/09/03 12:46:18;;;;;;;18.60;7.80;;;;;;;;;;5087082;28;20054;-84
2021/09/03 12:49:01;;;;;;;21.30;8.63;;;;;;;;;;5090091;28;20057;-82
2021/09/03 12:51:28;;;;;;;21.75;7.80;;;;;;;;;;5078409;28;20044;-82
2021/09/03 12:53:58;;;;;;;21.50;7.90;;;;;;;;;;5098363;27;20057;-82
2021/09/03 12:56:26;;;;;;;14.75;7.47;;;;;;;;;;5117912;27;20216;-82
2021/09/03 12:58:56;;;;;;;18.25;8.55;;;;;;;;;;5110592;28;20047;-82
2021/09/03 13:01:26;;;;;;;17.42;8.30;;;;;;;;;;5091693;28;20048;-82
2021/09/03 13:03:54;;;;;;;17.52;8.70;;;;;;;;;;5090194;28;20262;-82
2021/09/03 13:06:24;;;;;;;20.30;8.60;;;;;;;;;;5094993;28;20048;-82
2021/09/03 13:08:51;;;;;;;18.58;8.55;;;;;;;;;;5110607;28;20040;-83
2021/09/03 13:11:18;;;;;;;16.73;8.07;;;;;;;;;;5093790;27;20070;-82
2021/09/03 13:13:46;;;;;;;18.27;9.02;;;;;;;;;;5127305;27;20195;-83
2021/09/03 13:16:15;;;;;;;18.73;8.23;;;;;;;;;;5109860;28;20043;-83
2021/09/03 13:18:45;;;;;;;22.02;9.60;;;;;;;;;;5100031;28;20051;-83
2021/09/03 13:21:12;;;;;;;20.08;8.95;;;;;;;;;;5092062;28;20556;-83
2021/09/03 13:23:51;;;;;;;24.00;9.95;;;;;;;;;;5105931;28;20090;-83
2021/09/03 13:26:18;;;;;;;23.10;9.77;;;;;;;;;;5109191;28;20056;-83
2021/09/03 13:28:45;;;;;;;22.55;9.52;;;;;;;;;;5082899;28;20463;-83
2021/09/03 13:31:27;;;;;;;17.63;9.70;;;;;;;;;;5070847;28;20047;-84
2021/09/03 13:33:56;;;;;;;18.73;9.55;;;;;;;;;;5069034;28;20075;-83
2021/09/03 13:36:23;;;;;;;14.95;8.75;;;;;;;;;;5071136;28;20355;-83
2021/09/03 13:38:54;;;;;;;25.00;9.68;;;;;;;;;;5070805;28;20039;-82
2021/09/03 13:41:22;;;;;;;15.93;9.27;;;;;;;;;;5089440;28;20044;-84
2021/09/03 13:43:52;;;;;;;20.13;10.52;;;;;;;;;;5087945;28;20253;-83
2021/09/03 13:46:22;;;;;;;15.65;9.23;;;;;;;;;;5087574;28;20075;-82
2021/09/03 13:48:53;;;;;;;25.40;11.15;;;;;;;;;;5094090;28;20039;-82
2021/09/03 13:51:24;;;;;;;20.08;10.55;;;;;;;;;;5075072;28;20052;-84
2021/09/03 13:54:03;;;;;;;23.00;11.15;;;;;;;;;;5071435;28;20274;-82
2021/09/03 13:56:31;;;;;;;20.67;11.60;;;;;;;;;;5091087;28;20095;-85
2021/09/03 13:58:58;;;;;;;23.88;12.27;;;;;;;;;;5122522;27;20044;-82
2021/09/03 14:01:30;;;;;;;19.23;11.30;;;;;;;;;;5089294;28;20047;-82
2021/09/03 14:03:59;;;;;;;18.55;11.48;;;;;;;;;;5089446;28;20407;-84
2021/09/03 14:06:26;;;;;;;26.77;13.07;;;;;;;;;;5097595;28;20127;-83
2021/09/03 14:09:03;;;;;;;20.77;11.05;;;;;;;;;;5096155;28;20059;-84
2021/09/03 14:11:30;;;;;;;20.33;11.75;;;;;;;;;;5090648;28;20331;-83
2021/09/03 14:13:57;;;;;;;21.40;11.27;;;;;;;;;;5109001;28;20051;-83
2021/09/03 14:16:24;;;;;;;24.48;12.00;;;;;;;;;;5110598;28;20196;-82
2021/09/03 14:18:58;;;;;;;19.58;12.13;;;;;;;;;;5107003;28;20055;-83
2021/09/03 14:21:25;;;;;;;20.35;11.48;;;;;;;;;;5109665;28;20257;-83
2021/09/03 14:23:56;;;;;;;27.17;12.10;;;;;;;;;;5111606;28;20560;-82
2021/09/03 14:26:23;;;;;;;22.60;11.85;;;;;;;;;;5092541;28;20093;-83
2021/09/03 14:28:51;;;;;;;25.85;13.60;;;;;;;;;;5093066;28;20051;-82
2021/09/03 14:31:18;;;;;;;23.80;12.88;;;;;;;;;;5091166;28;20095;-83
2021/09/03 14:33:45;;;;;;;24.63;13.95;;;;;;;;;;5104586;28;20048;-83
2021/09/03 14:36:12;;;;;;;21.63;12.75;;;;;;;;;;5073719;28;20098;-84
2021/09/03 14:38:42;;;;;;;21.02;13.35;;;;;;;;;;5079542;28;20098;-83